createdAt,value
2022-10-25T00:01:57.772Z,12.10
2022-10-25T00:04:25.710Z,12.10
2022-10-25T00:06:53.570Z,12.10
2022-10-25T00:09:21.459Z,12.10
2022-10-25T00:11:49.317Z,12.10
2022-10-25T00:14:20.494Z,12.20
2022-10-25T00:16:48.407Z,12.20
2022-10-25T00:19:16.295Z,12.20
2022-10-25T00:21:44.265Z,12.10
2022-10-25T00:24:13.463Z,12.10
2022-10-25T00:26:41.626Z,12.10
2022-10-25T00:29:10.372Z,12.00
2022-10-25T00:31:39.980Z,11.90
2022-10-25T00:34:07.865Z,11.90
2022-10-25T00:36:36.186Z,12.00
2022-10-25T00:39:04.216Z,11.90
2022-10-25T00:41:33.708Z,11.80
2022-10-25T00:44:46.073Z,11.90
2022-10-25T00:47:19.864Z,11.90
2022-10-25T00:49:49.369Z,11.90
2022-10-25T00:52:17.705Z,11.90
2022-10-25T00:54:48.653Z,11.80
2022-10-25T00:57:23.040Z,11.80
2022-10-25T00:59:51.660Z,11.70
2022-10-25T01:02:23.242Z,11.80
2022-10-25T01:04:51.988Z,11.70
2022-10-25T01:07:19.870Z,11.70
2022-10-25T01:09:47.832Z,11.70
2022-10-25T01:12:15.655Z,11.70
2022-10-25T01:14:48.465Z,11.70
2022-10-25T01:17:23.921Z,11.70
2022-10-25T01:20:19.093Z,11.60
2022-10-25T01:22:51.320Z,11.50
2022-10-25T01:25:48.847Z,11.50
2022-10-25T01:28:23.090Z,11.50
2022-10-25T01:31:03.329Z,11.40
2022-10-25T01:33:36.543Z,11.50
2022-10-25T01:38:51.740Z,11.50
2022-10-25T01:41:29.122Z,11.50
2022-10-25T01:44:07.567Z,11.60
2022-10-25T01:46:45.258Z,11.60
2022-10-25T01:49:17.696Z,11.60
2022-10-25T01:51:45.560Z,11.60
2022-10-25T01:54:21.480Z,11.60
2022-10-25T01:56:59.637Z,11.60
2022-10-25T01:59:48.925Z,11.50
2022-10-25T02:02:25.547Z,11.50
2022-10-25T02:05:17.468Z,11.40
2022-10-25T02:07:53.505Z,11.30
2022-10-25T02:10:26.780Z,11.30
2022-10-25T02:12:57.939Z,11.20
2022-10-25T02:15:33.023Z,11.30
2022-10-25T02:18:05.674Z,11.30
2022-10-25T02:20:36.737Z,11.20
2022-10-25T02:23:06.942Z,11.10
2022-10-25T02:25:36.799Z,11.10
2022-10-25T02:28:08.745Z,11.00
2022-10-25T02:30:39.317Z,11.00
2022-10-25T02:33:08.840Z,11.00
2022-10-25T02:35:37.169Z,11.00
2022-10-25T02:38:05.292Z,10.90
2022-10-25T02:40:33.267Z,10.90
2022-10-25T02:43:01.130Z,10.90
2022-10-25T02:45:29.121Z,10.80
2022-10-25T02:47:57.226Z,10.80
2022-10-25T02:50:26.490Z,10.70
2022-10-25T02:52:54.405Z,10.70
2022-10-25T02:55:22.293Z,10.70
2022-10-25T02:57:50.380Z,10.70
2022-10-25T03:00:18.665Z,10.60
2022-10-25T03:02:46.767Z,10.70
2022-10-25T03:05:14.889Z,10.70
2022-10-25T03:07:44.071Z,10.70
2022-10-25T03:10:11.988Z,10.60
2022-10-25T03:12:39.916Z,10.50
2022-10-25T03:15:09.145Z,10.50
2022-10-25T03:17:37.211Z,10.60
2022-10-25T03:20:05.709Z,10.60
2022-10-25T03:22:33.577Z,10.70
2022-10-25T03:25:02.818Z,10.70
2022-10-25T03:27:30.721Z,10.80
2022-10-25T03:29:58.814Z,10.80
2022-10-25T03:32:26.684Z,10.80
2022-10-25T03:34:54.611Z,10.90
2022-10-25T03:37:22.485Z,11.00
2022-10-25T03:39:50.459Z,11.00
2022-10-25T03:42:19.706Z,11.00
2022-10-25T03:44:47.731Z,11.00
2022-10-25T03:47:16.137Z,10.90
2022-10-25T03:49:44.063Z,11.00
2022-10-25T03:52:12.718Z,10.90
2022-10-25T03:54:42.253Z,10.90
2022-10-25T03:57:10.106Z,10.90
2022-10-25T03:59:39.342Z,11.00
2022-10-25T04:02:07.497Z,11.00
2022-10-25T04:04:35.486Z,11.10
2022-10-25T04:07:03.428Z,11.10
2022-10-25T04:09:31.309Z,11.20
2022-10-25T04:11:59.244Z,11.30
2022-10-25T04:14:27.157Z,11.30
2022-10-25T04:16:56.380Z,11.30
2022-10-25T04:19:24.274Z,11.40
2022-10-25T04:21:52.162Z,11.40
2022-10-25T04:24:20.081Z,11.40
2022-10-25T04:26:47.927Z,11.40
2022-10-25T04:29:17.342Z,11.50
2022-10-25T04:31:45.180Z,11.50
2022-10-25T04:34:14.438Z,11.50
2022-10-25T04:36:42.741Z,11.50
2022-10-25T04:39:10.826Z,11.60
2022-10-25T04:41:38.715Z,11.60
2022-10-25T04:44:06.795Z,11.50
2022-10-25T04:46:34.812Z,11.50
2022-10-25T04:49:03.033Z,11.50
2022-10-25T04:51:32.312Z,11.40
2022-10-25T04:54:00.168Z,11.50
2022-10-25T04:56:29.974Z,11.40
2022-10-25T04:58:59.765Z,11.40
2022-10-25T05:01:27.886Z,11.40
2022-10-25T05:03:55.947Z,11.30
2022-10-25T05:06:26.453Z,11.20
2022-10-25T05:08:56.365Z,11.30
2022-10-25T05:11:25.953Z,11.20
2022-10-25T05:13:53.869Z,11.20
2022-10-25T05:16:24.503Z,11.20
2022-10-25T05:18:54.323Z,11.10
2022-10-25T05:21:23.161Z,11.20
2022-10-25T05:23:51.041Z,11.30
2022-10-25T05:26:22.197Z,11.30
2022-10-25T05:28:52.580Z,11.20
2022-10-25T05:31:22.258Z,11.20
2022-10-25T05:33:51.630Z,11.30
2022-10-25T05:36:19.933Z,11.30
2022-10-25T05:38:48.595Z,11.20
2022-10-25T05:41:17.954Z,11.20
2022-10-25T05:43:47.960Z,11.20
2022-10-25T05:46:17.873Z,11.20
2022-10-25T05:48:48.999Z,11.20
2022-10-25T05:51:33.859Z,11.20
2022-10-25T05:54:05.298Z,11.20
2022-10-25T05:56:34.823Z,11.10
2022-10-25T05:59:08.947Z,11.20
2022-10-25T06:01:38.207Z,11.10
2022-10-25T06:04:06.867Z,11.20
2022-10-25T06:06:34.918Z,11.10
2022-10-25T06:09:03.354Z,11.10
2022-10-25T06:11:32.169Z,11.10
2022-10-25T06:14:00.044Z,11.10
2022-10-25T06:16:29.698Z,11.10
2022-10-25T06:18:57.772Z,11.10
2022-10-25T06:21:27.431Z,11.10
2022-10-25T06:23:55.866Z,11.10
2022-10-25T06:26:25.276Z,11.10
2022-10-25T06:28:56.813Z,11.10
2022-10-25T06:31:25.302Z,11.10
2022-10-25T06:33:54.670Z,11.00
2022-10-25T06:36:24.102Z,11.10
2022-10-25T06:38:52.676Z,11.00
2022-10-25T06:41:22.221Z,11.00
2022-10-25T06:43:51.063Z,11.00
2022-10-25T06:46:22.947Z,11.00
2022-10-25T06:48:51.754Z,11.00
2022-10-25T06:51:22.293Z,11.10
2022-10-25T06:53:55.810Z,11.10
2022-10-25T06:56:24.222Z,11.10
2022-10-25T06:58:52.217Z,11.10
2022-10-25T07:01:22.004Z,11.30
2022-10-25T07:03:53.405Z,11.40
2022-10-25T07:06:25.430Z,11.50
2022-10-25T07:08:56.152Z,11.60
2022-10-25T07:11:26.189Z,11.60
2022-10-25T07:13:54.178Z,11.70
2022-10-25T07:16:22.794Z,11.80
2022-10-25T07:18:50.745Z,12.00
2022-10-25T07:21:21.375Z,12.10
2022-10-25T07:23:51.866Z,12.10
2022-10-25T07:26:22.726Z,12.20
2022-10-25T07:28:52.952Z,12.40
2022-10-25T07:31:23.194Z,12.50
2022-10-25T07:33:51.653Z,12.70
2022-10-25T07:36:19.799Z,12.80
2022-10-25T07:38:47.946Z,13.10
2022-10-25T07:41:17.345Z,13.30
2022-10-25T07:43:45.469Z,13.60
2022-10-25T07:46:13.362Z,13.80
2022-10-25T07:48:41.702Z,14.00
2022-10-25T07:51:11.571Z,14.10
2022-10-25T07:53:39.599Z,14.00
2022-10-25T07:56:08.339Z,14.10
2022-10-25T07:58:37.536Z,14.10
2022-10-25T08:01:07.495Z,14.30
2022-10-25T08:03:35.553Z,14.40
2022-10-25T08:06:03.644Z,14.50
2022-10-25T08:08:32.207Z,14.40
2022-10-25T08:11:03.633Z,14.30
2022-10-25T08:13:31.612Z,14.20
2022-10-25T08:16:01.131Z,14.20
2022-10-25T08:18:29.198Z,14.30
2022-10-25T08:21:02.426Z,14.30
2022-10-25T08:23:31.893Z,14.40
2022-10-25T08:25:59.918Z,14.70
2022-10-25T08:28:28.029Z,14.90
2022-10-25T08:30:56.547Z,14.90
2022-10-25T08:33:25.929Z,14.80
2022-10-25T08:35:53.763Z,14.70
2022-10-25T08:38:21.672Z,14.70
2022-10-25T08:40:58.775Z,14.80
2022-10-25T08:43:43.088Z,14.80
2022-10-25T08:46:14.688Z,14.80
2022-10-25T08:48:50.008Z,14.90
2022-10-25T08:51:27.102Z,15.30
2022-10-25T08:53:59.200Z,15.50
2022-10-25T08:56:28.892Z,15.60
2022-10-25T08:58:58.261Z,15.50
2022-10-25T09:01:29.761Z,15.30
2022-10-25T09:04:00.162Z,15.30
2022-10-25T09:06:37.586Z,15.30
2022-10-25T09:09:20.465Z,15.30
2022-10-25T09:12:00.031Z,15.30
2022-10-25T09:14:35.201Z,15.20
2022-10-25T09:17:13.373Z,15.20
2022-10-25T09:19:56.083Z,15.20
2022-10-25T09:22:27.897Z,15.30
2022-10-25T09:25:01.481Z,15.60
2022-10-25T09:27:35.545Z,15.90
2022-10-25T09:30:08.127Z,16.10
2022-10-25T09:32:40.329Z,16.30
2022-10-25T09:35:16.762Z,16.40
2022-10-25T09:37:49.818Z,16.40
2022-10-25T09:40:21.217Z,16.40
2022-10-25T09:42:54.216Z,16.40
2022-10-25T09:45:26.849Z,16.30
2022-10-25T09:48:03.589Z,16.10
2022-10-25T09:50:38.481Z,16.00
2022-10-25T09:53:12.240Z,16.00
2022-10-25T09:55:47.490Z,16.20
2022-10-25T09:58:20.878Z,16.30
2022-10-25T10:00:50.410Z,16.40
2022-10-25T10:03:18.782Z,16.40
2022-10-25T10:05:51.997Z,16.40
2022-10-25T10:08:19.864Z,16.50
2022-10-25T10:10:49.042Z,16.50
2022-10-25T10:13:22.270Z,16.50
2022-10-25T10:15:55.141Z,16.50
2022-10-25T10:18:30.702Z,16.50
2022-10-25T10:21:02.817Z,16.50
2022-10-25T10:23:36.274Z,16.60
2022-10-25T10:26:12.154Z,16.60
2022-10-25T10:28:45.953Z,16.60
2022-10-25T10:31:13.976Z,16.70
2022-10-25T10:33:47.943Z,16.60
2022-10-25T10:36:26.741Z,16.60
2022-10-25T10:38:56.039Z,16.70
2022-10-25T10:41:27.003Z,16.80
2022-10-25T10:44:09.615Z,16.90
2022-10-25T10:46:37.608Z,17.10
2022-10-25T10:49:05.876Z,17.40
2022-10-25T10:51:44.649Z,17.60
2022-10-25T10:54:26.367Z,17.90
2022-10-25T10:56:59.639Z,18.10
2022-10-25T10:59:35.851Z,18.00
2022-10-25T11:02:22.858Z,18.00
2022-10-25T11:04:52.575Z,18.00
2022-10-25T11:07:29.704Z,18.10
2022-10-25T11:10:20.377Z,18.00
2022-10-25T11:13:06.392Z,18.00
2022-10-25T11:15:44.172Z,18.00
2022-10-25T11:18:13.965Z,18.10
2022-10-25T11:20:49.896Z,18.20
2022-10-25T11:23:26.249Z,18.20
2022-10-25T11:26:03.286Z,18.30
2022-10-25T11:28:47.041Z,18.30
2022-10-25T11:31:24.684Z,18.20
2022-10-25T11:34:07.786Z,18.20
2022-10-25T11:36:48.439Z,18.50
2022-10-25T11:39:35.894Z,18.80
2022-10-25T11:42:17.849Z,19.00
2022-10-25T11:45:07.015Z,19.10
2022-10-25T11:47:44.020Z,19.30
2022-10-25T11:50:23.324Z,19.20
2022-10-25T11:53:11.444Z,19.20
2022-10-25T11:55:47.609Z,19.10
2022-10-25T11:58:27.762Z,19.00
2022-10-25T12:01:05.300Z,18.90
2022-10-25T12:03:45.391Z,18.80
2022-10-25T12:06:19.443Z,18.70
2022-10-25T12:08:58.158Z,18.70
2022-10-25T12:11:31.192Z,18.80
2022-10-25T12:14:01.999Z,18.70
2022-10-25T12:16:31.771Z,18.70
2022-10-25T12:19:08.968Z,18.80
2022-10-25T12:21:45.848Z,18.90
2022-10-25T12:24:20.767Z,18.90
2022-10-25T12:26:53.671Z,19.00
2022-10-25T12:29:27.177Z,19.10
2022-10-25T12:31:58.023Z,19.20
2022-10-25T12:34:35.418Z,19.30
2022-10-25T12:37:09.252Z,19.30
2022-10-25T12:39:41.510Z,19.20
2022-10-25T12:42:17.336Z,19.20
2022-10-25T12:45:12.717Z,19.30
2022-10-25T12:47:56.532Z,19.40
2022-10-25T12:50:49.334Z,19.60
2022-10-25T12:54:02.514Z,19.70
2022-10-25T12:56:43.785Z,19.70
2022-10-25T12:59:42.852Z,19.70
2022-10-25T13:03:05.692Z,19.80
2022-10-25T13:06:10.900Z,19.80
2022-10-25T13:08:40.721Z,19.70
2022-10-25T13:11:10.255Z,19.70
2022-10-25T13:13:41.252Z,19.70
2022-10-25T13:16:11.605Z,19.70
2022-10-25T13:18:43.187Z,19.80
2022-10-25T13:21:13.050Z,19.80
2022-10-25T13:24:02.923Z,19.80
2022-10-25T13:26:33.935Z,19.90
2022-10-25T13:29:04.092Z,20.00
2022-10-25T13:32:10.118Z,20.00
2022-10-25T13:34:40.430Z,20.10
2022-10-25T13:37:39.732Z,20.30
2022-10-25T13:40:19.557Z,20.30
2022-10-25T13:42:48.763Z,20.20
2022-10-25T13:45:27.976Z,20.20
2022-10-25T13:48:08.020Z,20.20
2022-10-25T13:50:44.759Z,20.10
2022-10-25T13:53:21.698Z,19.90
2022-10-25T13:56:06.675Z,19.70
2022-10-25T13:58:52.696Z,19.40
2022-10-25T14:02:07.026Z,19.30
2022-10-25T14:04:39.543Z,19.20
2022-10-25T14:07:46.155Z,19.10
2022-10-25T14:10:30.030Z,19.00
2022-10-25T14:13:15.487Z,19.00
2022-10-25T14:15:50.504Z,19.00
2022-10-25T14:18:22.902Z,19.00
2022-10-25T14:20:56.400Z,19.10
2022-10-25T14:23:27.745Z,19.20
2022-10-25T14:25:57.584Z,19.20
2022-10-25T14:28:27.952Z,19.20
2022-10-25T14:30:57.736Z,19.10
2022-10-25T14:33:28.908Z,19.00
2022-10-25T14:36:07.712Z,19.00
2022-10-25T14:38:39.939Z,18.80
2022-10-25T14:41:13.386Z,18.60
2022-10-25T14:43:43.292Z,18.60
2022-10-25T14:46:16.313Z,18.40
2022-10-25T14:48:46.763Z,18.30
2022-10-25T14:51:21.764Z,18.10
2022-10-25T14:53:56.432Z,18.00
2022-10-25T14:56:30.074Z,17.90
2022-10-25T14:58:58.600Z,17.90
2022-10-25T15:01:27.295Z,17.90
2022-10-25T15:03:59.305Z,17.80
2022-10-25T15:06:32.057Z,17.80
2022-10-25T15:09:37.079Z,17.70
2022-10-25T15:12:16.480Z,17.70
2022-10-25T15:14:46.488Z,17.60
2022-10-25T15:17:19.141Z,17.60
2022-10-25T15:20:03.193Z,17.50
2022-10-25T15:22:34.706Z,17.40
2022-10-25T15:25:02.624Z,17.40
2022-10-25T15:27:35.705Z,17.30
2022-10-25T15:30:04.939Z,17.20
2022-10-25T15:32:34.129Z,17.20
2022-10-25T15:35:03.441Z,17.10
2022-10-25T15:37:32.679Z,17.00
2022-10-25T15:40:01.040Z,17.00
2022-10-25T15:42:28.922Z,16.90
2022-10-25T15:44:56.805Z,16.80
2022-10-25T15:47:32.180Z,16.70
2022-10-25T15:50:02.385Z,16.60
2022-10-25T15:52:32.657Z,16.50
2022-10-25T15:55:01.882Z,16.50
2022-10-25T15:57:29.718Z,16.40
2022-10-25T15:59:57.654Z,16.40
2022-10-25T16:02:28.455Z,16.30
2022-10-25T16:04:56.480Z,16.30
2022-10-25T16:07:24.421Z,16.20
2022-10-25T16:09:52.286Z,16.10
2022-10-25T16:12:26.200Z,15.90
2022-10-25T16:14:54.492Z,15.80
2022-10-25T16:17:22.344Z,15.70
2022-10-25T16:19:50.242Z,15.60
2022-10-25T16:22:18.270Z,15.50
2022-10-25T16:24:48.972Z,15.50
2022-10-25T16:27:16.863Z,15.40
2022-10-25T16:29:47.047Z,15.40
2022-10-25T16:32:14.923Z,15.30
2022-10-25T16:34:46.051Z,15.10
2022-10-25T16:37:13.910Z,14.90
2022-10-25T16:39:41.770Z,14.80
2022-10-25T16:42:31.059Z,14.70
2022-10-25T16:45:01.119Z,14.70
2022-10-25T16:47:29.486Z,14.60
2022-10-25T16:49:57.355Z,14.60
2022-10-25T16:52:25.565Z,14.60
2022-10-25T16:54:53.434Z,14.50
2022-10-25T16:57:21.289Z,14.50
2022-10-25T16:59:50.493Z,14.50
2022-10-25T17:02:22.416Z,14.40
2022-10-25T17:04:50.329Z,14.40
2022-10-25T17:07:18.417Z,14.40
2022-10-25T17:09:46.358Z,14.30
2022-10-25T17:12:14.369Z,14.30
2022-10-25T17:14:42.557Z,14.20
2022-10-25T17:17:10.521Z,14.10
2022-10-25T17:19:39.753Z,14.00
2022-10-25T17:22:07.694Z,14.00
2022-10-25T17:24:37.513Z,14.00
2022-10-25T17:27:06.155Z,14.00
2022-10-25T17:29:34.021Z,13.90
2022-10-25T17:32:01.851Z,13.80
2022-10-25T17:34:31.528Z,13.80
2022-10-25T17:37:02.217Z,13.70
2022-10-25T17:39:30.542Z,13.70
2022-10-25T17:41:58.411Z,13.60
2022-10-25T17:44:26.285Z,13.50
2022-10-25T17:46:55.500Z,13.50
2022-10-25T17:49:25.173Z,13.50
2022-10-25T17:51:53.090Z,13.50
2022-10-25T17:54:22.408Z,13.50
2022-10-25T17:56:50.304Z,13.40
2022-10-25T17:59:18.209Z,13.40
2022-10-25T18:01:46.176Z,13.40
2022-10-25T18:04:14.123Z,13.30
2022-10-25T18:06:42.115Z,13.40
2022-10-25T18:09:10.432Z,13.30
2022-10-25T18:11:39.690Z,13.30
2022-10-25T18:14:07.775Z,13.20
2022-10-25T18:16:35.685Z,13.30
2022-10-25T18:19:06.042Z,13.20
2022-10-25T18:21:34.776Z,13.20
2022-10-25T18:24:04.849Z,13.10
2022-10-25T18:26:33.536Z,13.10
2022-10-25T18:29:02.775Z,13.10
2022-10-25T18:31:31.003Z,13.10
2022-10-25T18:34:03.242Z,13.00
2022-10-25T18:36:31.914Z,13.00
2022-10-25T18:39:00.083Z,13.00
2022-10-25T18:41:30.029Z,12.90
2022-10-25T18:43:58.665Z,12.90
2022-10-25T18:46:30.704Z,12.80
2022-10-25T18:48:58.819Z,12.80
2022-10-25T18:51:28.771Z,12.80
2022-10-25T18:53:57.388Z,12.80
2022-10-25T18:56:25.758Z,12.70
2022-10-25T18:58:54.906Z,12.70
2022-10-25T19:01:26.025Z,12.70
2022-10-25T19:03:57.371Z,12.70
2022-10-25T19:06:25.432Z,12.60
2022-10-25T19:08:55.764Z,12.60
2022-10-25T19:11:23.919Z,12.50
2022-10-25T19:13:54.236Z,12.50
2022-10-25T19:16:22.368Z,12.50
2022-10-25T19:18:50.249Z,12.50
2022-10-25T19:21:20.307Z,12.40
2022-10-25T19:23:48.331Z,12.40
2022-10-25T19:26:19.706Z,12.40
2022-10-25T19:28:48.346Z,12.40
2022-10-25T19:31:17.726Z,12.30
2022-10-25T19:33:46.865Z,12.30
2022-10-25T19:36:14.775Z,12.30
2022-10-25T19:38:45.188Z,12.20
2022-10-25T19:41:16.665Z,12.10
2022-10-25T19:43:45.152Z,12.00
2022-10-25T19:46:13.976Z,12.00
2022-10-25T19:48:42.157Z,11.90
2022-10-25T19:51:12.393Z,12.00
2022-10-25T19:53:40.882Z,12.00
2022-10-25T19:56:12.492Z,11.90
2022-10-25T19:58:41.190Z,11.90
2022-10-25T20:01:11.442Z,11.80
2022-10-25T20:03:40.434Z,11.70
2022-10-25T20:06:10.364Z,11.60
2022-10-25T20:08:40.539Z,11.60
2022-10-25T20:11:11.526Z,11.60
2022-10-25T20:13:39.607Z,11.60
2022-10-25T20:16:08.538Z,11.50
2022-10-25T20:18:38.945Z,11.50
2022-10-25T20:21:08.792Z,11.50
2022-10-25T20:23:37.246Z,11.40
2022-10-25T20:26:14.193Z,11.40
2022-10-25T20:28:42.618Z,11.40
2022-10-25T20:31:11.102Z,11.30
2022-10-25T20:33:39.990Z,11.30
2022-10-25T20:36:10.234Z,11.30
2022-10-25T20:38:38.590Z,11.40
2022-10-25T20:41:07.820Z,11.30
2022-10-25T20:43:37.405Z,11.20
2022-10-25T20:46:06.178Z,11.20
2022-10-25T20:48:34.483Z,11.20
2022-10-25T20:51:05.332Z,11.20
2022-10-25T20:53:36.118Z,11.30
2022-10-25T20:56:04.289Z,11.30
2022-10-25T20:58:33.034Z,11.30
2022-10-25T21:01:02.660Z,11.30
2022-10-25T21:03:32.207Z,11.30
2022-10-25T21:06:01.324Z,11.30
2022-10-25T21:08:29.153Z,11.30
2022-10-25T21:10:58.435Z,11.30
2022-10-25T21:13:27.505Z,11.30
2022-10-25T21:15:55.403Z,11.30
2022-10-25T21:18:28.520Z,11.30
2022-10-25T21:21:01.656Z,11.30
2022-10-25T21:23:30.998Z,11.30
2022-10-25T21:25:59.614Z,11.30
2022-10-25T21:28:27.802Z,11.40
2022-10-25T21:30:55.624Z,11.40
2022-10-25T21:33:24.891Z,11.40
2022-10-25T21:35:52.705Z,11.40
2022-10-25T21:38:21.091Z,11.50
2022-10-25T21:40:48.935Z,11.50
2022-10-25T21:43:16.804Z,11.40
2022-10-25T21:45:44.729Z,11.40
2022-10-25T21:48:12.591Z,11.40
2022-10-25T21:50:41.783Z,11.40
2022-10-25T21:53:09.882Z,11.50
2022-10-25T21:55:37.723Z,11.50
2022-10-25T21:58:05.617Z,11.60
2022-10-25T22:00:33.478Z,11.60
2022-10-25T22:03:01.300Z,11.60
2022-10-25T22:05:29.108Z,11.60
2022-10-25T22:07:58.296Z,11.70
2022-10-25T22:10:26.312Z,11.70
2022-10-25T22:12:54.886Z,11.70
2022-10-25T22:15:22.801Z,11.70
2022-10-25T22:17:50.627Z,11.70
2022-10-25T22:20:18.622Z,11.70
2022-10-25T22:22:46.853Z,11.70
2022-10-25T22:25:16.529Z,11.70
2022-10-25T22:30:18.226Z,11.70
2022-10-25T22:32:46.327Z,11.80
2022-10-25T22:35:14.513Z,11.80
2022-10-25T22:37:42.384Z,11.70
2022-10-25T22:40:11.058Z,11.70
2022-10-25T22:42:40.298Z,11.70
2022-10-25T22:45:09.020Z,11.70
2022-10-25T22:47:36.875Z,11.70
2022-10-25T22:50:04.959Z,11.80
2022-10-25T22:52:32.882Z,11.70
2022-10-25T22:55:00.779Z,11.70
2022-10-25T22:57:30.767Z,11.80
2022-10-25T22:59:59.991Z,11.70
2022-10-25T23:02:27.881Z,11.70
2022-10-25T23:04:55.751Z,11.80
2022-10-25T23:07:23.620Z,11.80
2022-10-25T23:09:51.522Z,11.80
2022-10-25T23:12:19.366Z,11.80
2022-10-25T23:14:47.256Z,11.80
2022-10-25T23:17:16.475Z,11.80
2022-10-25T23:19:44.350Z,11.80
2022-10-25T23:22:12.285Z,11.90
2022-10-25T23:24:40.121Z,11.80
2022-10-25T23:27:08.453Z,11.90
2022-10-25T23:29:36.320Z,11.90
2022-10-25T23:32:04.300Z,11.90
2022-10-25T23:34:34.231Z,11.90
2022-10-25T23:37:02.128Z,11.90
2022-10-25T23:39:29.986Z,11.90
2022-10-25T23:41:58.033Z,11.90
2022-10-25T23:44:25.857Z,12.00
2022-10-25T23:46:53.736Z,12.00
2022-10-25T23:49:21.611Z,12.00
2022-10-25T23:51:50.808Z,12.00
2022-10-25T23:54:18.668Z,12.10
2022-10-25T23:56:46.517Z,12.10
2022-10-25T23:59:14.461Z,12.10
